This is the latest recevied weather packets stored in our database for station/object N4OGP-WX. If no packets are shown the sender has not sent any weather packets the latest 10 day(s).
| Time | Temp. | Humidity | Pressure | Rain* | Wind** | Luminosity | Snow |
|---|---|---|---|---|---|---|---|
| 1777630191 | 23.89° C | 42% | 1020.4 hPa | 0 mm | - | - | - |
| 1777630101 | 23.89° C | 42% | 1020.4 hPa | 0 mm | - | - | - |
| 1777630041 | 20° C | 85% | 1008.7 hPa | 0 mm | - | - | - |
| 1777629981 | 23.89° C | 42% | 1020.4 hPa | 0 mm | - | - | - |
| 1777629921 | 20° C | 85% | 1008.8 hPa | 0 mm | - | - | - |
| 1777629861 | 23.89° C | 42% | 1020.4 hPa | 0 mm | - | - | - |
| 1777629801 | 20° C | 85% | 1008.8 hPa | 0 mm | - | - | - |
| 1777629741 | 20° C | 85% | 1008.8 hPa | 0 mm | - | - | - |
| 1777629681 | 20° C | 85% | 1008.9 hPa | 0 mm | - | - | - |
| 1777629591 | 20° C | 85% | 1008.9 hPa | 0 mm | - | - | - |
| 1777629531 | 23.89° C | 42% | 1020.4 hPa | 0 mm | - | - | - |
| 1777629471 | 23.89° C | 42% | 1020.4 hPa | 0 mm | - | - | - |
| 1777629381 | 20° C | 85% | 1009 hPa | 0 mm | - | - | - |
| 1777629321 | 20° C | 85% | 1009 hPa | 0 mm | - | - | - |
| 1777629261 | 23.89° C | 42% | 1020.4 hPa | 0 mm | - | - | - |
| 1777629171 | 20° C | 85% | 1008.9 hPa | 0 mm | - | - | - |
| 1777629111 | 20° C | 85% | 1008.9 hPa | 0 mm | - | - | - |
| 1777629051 | 20° C | 86% | 1008.8 hPa | 0 mm | - | - | - |
| 1777628991 | 23.89° C | 42% | 1020.4 hPa | 0 mm | - | - | - |
| 1777628931 | 20° C | 86% | 1008.8 hPa | 0 mm | - | - | - |
| 1777628871 | 23.89° C | 42% | 1020.4 hPa | 0 mm | - | - | - |
| 1777628811 | 20° C | 86% | 1008.9 hPa | 0 mm | - | - | - |
| 1777628751 | 23.89° C | 42% | 1020.4 hPa | 0 mm | - | - | - |
| 1777628661 | 20° C | 86% | 1008.9 hPa | 0 mm | - | - | - |
| 1777628601 | 23.89° C | 42% | 1020.4 hPa | 0 mm | - | - | - |
* Rain latest hour (hover to see other rain measurements)
** Current wind speed in m/s (hover to see current wind gust speed)